Time;durP1;ratioP1;P1;durP2;ratioP2;P2;SDS_P1;SDS_P2;PMS_P1;PMS_P2;Temp;Humidity;BMP_temperature;BMP_pressure;BME280_temperature;BME280_humidity;BME280_pressure;Samples;Min_cycle;Max_cycle;Signal;HPM_P1;HPM_P2
2023/02/08 00:02:01;;;;;;;11.17;7.17;;;;;;;-2.33;71.44;150778.72;4967801;28;20559;-81
2023/02/08 00:04:28;;;;;;;12.23;7.10;;;;;;;-2.36;70.29;150771.09;4986083;28;20562;-82
2023/02/08 00:06:56;;;;;;;9.57;7.13;;;;;;;-2.38;72.01;150764.69;5005552;28;20921;-83
2023/02/08 00:09:22;;;;;;;10.77;7.13;;;;;;;-2.45;70.20;150748.03;4994308;28;20514;-83
2023/02/08 00:11:49;;;;;;;10.17;6.87;;;;;;;-2.43;70.12;150753.13;4989174;28;20551;-82
2023/02/08 00:14:16;;;;;;;10.40;7.47;;;;;;;-2.48;69.45;150741.63;4999273;28;20534;-83
2023/02/08 00:16:42;;;;;;;10.73;7.30;;;;;;;-2.35;68.26;150772.31;4985423;28;20523;-81
2023/02/08 00:19:09;;;;;;;8.00;6.83;;;;;;;-2.41;69.17;150758.28;5000775;28;20507;-80
2023/02/08 00:21:36;;;;;;;10.20;7.13;;;;;;;-2.39;70.57;150762.09;5003717;28;20475;-82
2023/02/08 00:24:04;;;;;;;9.37;7.20;;;;;;;-2.37;66.91;150768.50;5008955;28;20578;-82
2023/02/08 00:26:31;;;;;;;14.33;7.23;;;;;;;-2.31;66.77;150783.88;5002660;28;20941;-82
2023/02/08 00:28:57;;;;;;;10.07;6.20;;;;;;;-2.42;69.04;150754.41;5000530;28;20516;-82
2023/02/08 00:31:24;;;;;;;9.93;6.80;;;;;;;-2.46;69.44;150746.72;5011526;28;20933;-82
2023/02/08 00:33:51;;;;;;;9.70;7.10;;;;;;;-2.49;68.78;150739.03;5010788;28;20688;-82
2023/02/08 00:36:18;;;;;;;9.87;7.67;;;;;;;-2.49;68.50;150739.03;5005801;28;20483;-82
2023/02/08 00:38:45;;;;;;;11.33;7.47;;;;;;;-2.50;66.85;150736.50;5014577;28;21003;-82
2023/02/08 00:41:13;;;;;;;10.87;6.80;;;;;;;-2.52;68.43;150730.13;5010939;28;20473;-82
2023/02/08 00:43:39;;;;;;;9.77;6.73;;;;;;;-2.56;68.50;150721.13;4993998;28;20471;-82
2023/02/08 00:46:06;;;;;;;7.83;6.30;;;;;;;-2.55;67.77;150723.72;5012704;28;20815;-82
2023/02/08 00:48:33;;;;;;;11.23;6.83;;;;;;;-2.63;66.82;150703.22;5011393;28;20459;-82
2023/02/08 00:51:01;;;;;;;9.33;7.27;;;;;;;-2.67;66.56;150692.97;4987023;28;20938;-80
2023/02/08 00:53:28;;;;;;;10.20;7.00;;;;;;;-2.61;65.81;150708.34;4994847;28;20483;-82
2023/02/08 00:55:55;;;;;;;10.30;6.07;;;;;;;-2.58;64.59;150716.03;4990415;28;20466;-82
2023/02/08 00:58:24;;;;;;;11.80;6.60;;;;;;;-2.51;65.35;150733.94;5015930;28;20461;-79
2023/02/08 01:00:52;;;;;;;10.17;5.93;;;;;;;-2.41;63.71;150757.00;4985149;28;20459;-81
2023/02/08 01:03:18;;;;;;;10.17;6.53;;;;;;;-2.43;63.93;150751.84;4970978;28;20541;-81
2023/02/08 01:05:45;;;;;;;7.70;5.93;;;;;;;-2.49;63.38;150737.81;5014870;28;20467;-81
2023/02/08 01:08:12;;;;;;;9.57;6.10;;;;;;;-2.27;62.35;150792.81;5008583;28;20455;-81
2023/02/08 01:10:38;;;;;;;6.67;5.70;;;;;;;-2.25;61.82;150799.22;5012447;28;20598;-80
2023/02/08 01:13:05;;;;;;;7.63;6.23;;;;;;;-2.31;61.71;150783.88;5004342;28;20553;-81
2023/02/08 01:15:33;;;;;;;8.17;5.47;;;;;;;-2.37;62.91;150767.22;5005367;28;20517;-81
2023/02/08 01:18:01;;;;;;;9.13;6.50;;;;;;;-2.45;63.38;150748.03;4981764;28;20454;-80
2023/02/08 01:20:28;;;;;;;7.20;5.13;;;;;;;-2.36;62.42;150771.09;4982783;28;20566;-80
2023/02/08 01:22:56;;;;;;;15.33;6.60;;;;;;;-2.43;63.34;150753.13;5003466;28;20585;-81
2023/02/08 01:25:23;;;;;;;7.77;6.23;;;;;;;-2.31;62.19;150782.59;5012428;28;20545;-80
2023/02/08 01:27:49;;;;;;;9.10;6.60;;;;;;;-2.29;62.50;150789.00;5006710;28;20443;-81
2023/02/08 01:30:17;;;;;;;11.00;6.30;;;;;;;-2.28;62.54;150791.59;5005237;28;20490;-80
2023/02/08 01:32:45;;;;;;;10.07;6.57;;;;;;;-2.35;62.69;150772.31;5016709;28;20454;-80
2023/02/08 01:35:12;;;;;;;11.50;6.73;;;;;;;-2.28;62.02;150790.28;5015247;28;20447;-80
2023/02/08 01:37:38;;;;;;;8.47;5.57;;;;;;;-2.28;63.35;150791.59;5016539;28;20449;-80
2023/02/08 01:40:06;;;;;;;9.23;5.90;;;;;;;-2.44;63.99;150750.59;4976589;28;20443;-80
2023/02/08 01:42:33;;;;;;;8.00;5.70;;;;;;;-2.43;63.38;150751.84;5004688;28;20468;-80
2023/02/08 01:45:28;;;;;;;8.80;6.03;;;;;;;-2.39;62.20;150762.09;5023365;28;20893;-81
2023/02/08 01:48:02;;;;;;;9.47;6.27;;;;;;;-2.36;62.20;150769.81;4982831;28;20458;-80
2023/02/08 01:50:36;;;;;;;8.20;5.83;;;;;;;-2.45;63.05;150748.03;4998166;28;20532;-80
2023/02/08 01:53:03;;;;;;;7.97;6.23;;;;;;;-2.52;64.17;150731.41;4999071;28;20477;-80
2023/02/08 01:55:34;;;;;;;9.63;6.83;;;;;;;-2.58;64.27;150714.75;5015064;28;20459;-80
2023/02/08 01:58:03;;;;;;;9.17;6.70;;;;;;;-2.58;63.67;150716.03;4991170;28;20554;-80
2023/02/08 02:00:31;;;;;;;11.73;6.90;;;;;;;-2.49;63.54;150737.81;4985951;28;20460;-81
2023/02/08 02:03:00;;;;;;;8.93;6.10;;;;;;;-2.49;63.09;150737.81;4991595;28;20483;-80
2023/02/08 02:05:32;;;;;;;11.30;7.27;;;;;;;-2.48;63.78;150741.63;5006657;28;20448;-80
2023/02/08 02:07:59;;;;;;;9.10;6.10;;;;;;;-2.38;63.08;150764.69;4977914;28;20457;-80
2023/02/08 02:10:29;;;;;;;8.10;6.03;;;;;;;-2.38;62.36;150764.69;4998185;28;20453;-80
2023/02/08 02:12:57;;;;;;;8.97;6.13;;;;;;;-2.25;60.96;150799.22;5010906;28;20485;-81
2023/02/08 02:15:24;;;;;;;6.93;6.00;;;;;;;-2.44;62.88;150750.59;5012437;28;20464;-81
2023/02/08 02:17:50;;;;;;;9.47;6.23;;;;;;;-2.59;63.73;150713.44;5008559;28;20872;-82
2023/02/08 02:20:24;;;;;;;8.17;6.30;;;;;;;-2.53;63.20;150728.81;4978492;28;20501;-80
2023/02/08 02:23:26;;;;;;;10.60;5.63;;;;;;;-2.57;63.83;150718.56;4989006;28;20532;-80
2023/02/08 02:26:24;;;;;;;8.40;6.30;;;;;;;-2.61;63.78;150707.06;4974483;28;20459;-80
2023/02/08 02:29:33;;;;;;;8.80;6.60;;;;;;;-2.52;63.26;150730.13;4997422;28;20484;-80
2023/02/08 02:32:10;;;;;;;6.67;5.80;;;;;;;-2.60;64.04;150710.91;4960425;28;20470;-80
2023/02/08 02:34:41;;;;;;;7.13;5.30;;;;;;;-2.66;63.50;150695.53;5009273;28;20549;-80
2023/02/08 02:37:14;;;;;;;8.70;6.23;;;;;;;-2.70;64.09;150685.28;5006356;28;20491;-80
2023/02/08 02:39:45;;;;;;;9.77;5.70;;;;;;;-2.65;64.59;150698.06;4990903;28;20462;-80
2023/02/08 02:45:06;;;;;;;11.43;6.33;;;;;;;-2.62;64.52;150705.75;4994634;28;20475;-80
2023/02/08 02:47:39;;;;;;;9.70;5.43;;;;;;;-2.63;63.84;150703.22;5012215;28;20439;-80
2023/02/08 02:50:12;;;;;;;10.23;6.00;;;;;;;-2.49;62.94;150737.81;4999385;28;20464;-80
2023/02/08 02:52:42;;;;;;;10.47;6.63;;;;;;;-2.40;63.19;150760.81;5001238;28;20455;-80
2023/02/08 02:55:11;;;;;;;9.57;6.23;;;;;;;-2.43;63.52;150751.84;5005397;28;20441;-81
2023/02/08 02:57:40;;;;;;;10.00;6.17;;;;;;;-2.44;62.97;150749.31;5003243;28;20540;-80
2023/02/08 03:00:08;;;;;;;7.90;6.80;;;;;;;-2.46;63.02;150746.72;4976263;28;20446;-80
2023/02/08 03:02:36;;;;;;;8.90;6.77;;;;;;;-2.35;61.80;150772.31;4989092;28;20455;-80
2023/02/08 03:05:03;;;;;;;8.30;6.47;;;;;;;-2.32;61.81;150781.31;5005225;28;20487;-80
2023/02/08 03:07:42;;;;;;;9.70;5.90;;;;;;;-2.29;62.55;150787.72;4994620;28;20465;-80
2023/02/08 03:10:18;;;;;;;8.87;6.73;;;;;;;-2.39;62.57;150762.09;4982484;28;20462;-80
2023/02/08 03:12:53;;;;;;;7.37;5.43;;;;;;;-2.38;63.09;150764.69;5014220;28;20438;-80
2023/02/08 03:15:26;;;;;;;9.80;6.90;;;;;;;-2.39;61.81;150762.09;5006204;28;20450;-80
2023/02/08 03:18:05;;;;;;;8.30;6.67;;;;;;;-2.36;62.21;150769.81;4986761;28;20535;-80
2023/02/08 03:20:33;;;;;;;8.80;6.33;;;;;;;-2.42;62.16;150754.41;4986789;28;20468;-80
2023/02/08 03:23:02;;;;;;;7.67;6.63;;;;;;;-2.36;62.59;150771.09;4999999;28;20543;-80
2023/02/08 03:25:35;;;;;;;8.13;5.67;;;;;;;-2.48;62.51;150741.63;4995562;28;20461;-80
2023/02/08 03:28:06;;;;;;;9.30;6.40;;;;;;;-2.41;62.54;150758.28;5000316;28;20441;-81
2023/02/08 03:30:37;;;;;;;7.77;6.37;;;;;;;-2.48;63.66;150741.63;5008791;28;20469;-80
2023/02/08 03:33:11;;;;;;;10.73;6.33;;;;;;;-2.60;63.25;150709.63;4995049;28;20439;-80
2023/02/08 03:35:41;;;;;;;10.50;6.30;;;;;;;-2.43;62.75;150751.84;4988122;28;20462;-80
2023/02/08 03:38:13;;;;;;;11.00;8.20;;;;;;;-2.40;62.11;150760.81;5009967;28;20804;-80
2023/02/08 03:40:41;;;;;;;10.90;6.23;;;;;;;-2.53;63.79;150727.53;4995301;28;20557;-80
2023/02/08 03:43:14;;;;;;;8.33;6.00;;;;;;;-2.61;64.40;150708.34;4980483;28;20478;-80
2023/02/08 03:45:44;;;;;;;10.53;6.63;;;;;;;-2.52;63.40;150730.13;5001865;28;20463;-80
2023/02/08 03:48:14;;;;;;;9.40;6.70;;;;;;;-2.46;62.90;150745.44;5012716;28;20991;-80
2023/02/08 03:50:41;;;;;;;10.53;6.80;;;;;;;-2.49;64.08;150739.03;4997319;28;20673;-80
2023/02/08 03:53:08;;;;;;;9.73;6.97;;;;;;;-2.53;63.77;150728.81;4989625;28;20443;-80
2023/02/08 03:55:36;;;;;;;8.47;6.80;;;;;;;-2.62;63.95;150705.75;5007086;28;20581;-80
2023/02/08 03:58:06;;;;;;;7.70;6.00;;;;;;;-2.63;64.43;150701.94;5008927;28;20454;-80
2023/02/08 04:00:37;;;;;;;9.90;7.90;;;;;;;-2.69;65.37;150686.56;4991165;28;20422;-80
2023/02/08 04:03:09;;;;;;;9.30;7.00;;;;;;;-2.62;65.03;150704.53;5008923;28;20454;-80
2023/02/08 04:05:37;;;;;;;10.67;6.67;;;;;;;-2.65;65.58;150698.06;4991943;28;20465;-80
2023/02/08 04:08:04;;;;;;;9.37;6.43;;;;;;;-2.67;65.88;150692.97;5011728;28;20494;-80
2023/02/08 04:10:31;;;;;;;11.57;7.07;;;;;;;-2.72;65.96;150678.88;5005680;28;20484;-80
2023/02/08 04:12:58;;;;;;;10.50;7.20;;;;;;;-2.70;66.24;150684.03;5003829;28;20469;-80
2023/02/08 04:15:26;;;;;;;10.30;7.10;;;;;;;-2.80;66.77;150658.41;5012963;28;20465;-80
2023/02/08 04:17:52;;;;;;;9.50;6.80;;;;;;;-2.83;66.46;150652.00;5007997;28;20440;-80
2023/02/08 04:20:19;;;;;;;8.93;6.93;;;;;;;-2.79;66.71;150662.25;4993492;28;20538;-80
2023/02/08 04:22:47;;;;;;;10.47;7.20;;;;;;;-2.78;66.54;150664.78;4994655;28;20455;-80
2023/02/08 04:25:14;;;;;;;12.00;7.47;;;;;;;-2.82;65.86;150654.56;5007707;28;20769;-80
2023/02/08 04:27:41;;;;;;;10.27;7.10;;;;;;;-2.81;65.78;150655.88;5007781;28;20455;-80
2023/02/08 04:30:09;;;;;;;9.43;6.60;;;;;;;-2.70;65.51;150685.28;4994264;28;20522;-80
2023/02/08 04:32:35;;;;;;;9.70;7.53;;;;;;;-2.76;65.78;150669.94;5005478;28;20456;-80
2023/02/08 04:35:02;;;;;;;9.10;5.67;;;;;;;-2.75;65.06;150672.47;5004915;28;20490;-80
2023/02/08 04:37:29;;;;;;;11.27;6.87;;;;;;;-2.78;65.84;150664.78;5000757;28;21025;-80
2023/02/08 04:39:57;;;;;;;13.43;8.10;;;;;;;-2.80;65.69;150659.69;4993839;28;20459;-80
2023/02/08 04:42:23;;;;;;;10.50;7.00;;;;;;;-2.74;64.94;150675.06;5007015;28;20552;-80
2023/02/08 04:44:50;;;;;;;14.73;7.53;;;;;;;-2.86;65.52;150644.31;5003693;28;20745;-79
2023/02/08 04:47:17;;;;;;;12.40;9.53;;;;;;;-2.93;67.22;150626.41;4980971;28;20514;-80
2023/02/08 04:49:44;;;;;;;11.93;9.17;;;;;;;-2.85;65.57;150646.91;4987179;28;20569;-80
2023/02/08 04:52:11;;;;;;;8.00;6.80;;;;;;;-3.01;66.98;150605.94;4997775;28;20521;-80
2023/02/08 04:54:37;;;;;;;9.70;7.60;;;;;;;-2.95;65.99;150621.31;4996155;28;20928;-80
2023/02/08 04:57:05;;;;;;;11.20;7.30;;;;;;;-3.01;66.37;150605.94;5009683;28;20443;-80
2023/02/08 04:59:32;;;;;;;9.03;7.03;;;;;;;-2.90;65.93;150634.09;4991764;28;20924;-80
2023/02/08 05:01:59;;;;;;;10.63;7.23;;;;;;;-3.02;66.93;150602.13;4989399;28;20451;-80
2023/02/08 05:04:26;;;;;;;11.17;6.90;;;;;;;-2.99;66.27;150611.03;5006972;28;20477;-80
2023/02/08 05:06:52;;;;;;;9.00;7.00;;;;;;;-3.08;66.84;150589.31;5015145;28;20467;-80
2023/02/08 05:09:19;;;;;;;10.93;7.07;;;;;;;-3.19;68.30;150559.88;4988353;28;20500;-80
2023/02/08 05:11:46;;;;;;;10.63;7.37;;;;;;;-3.15;67.46;150570.13;4998327;28;20525;-80
2023/02/08 05:14:14;;;;;;;10.50;6.93;;;;;;;-3.13;67.84;150575.25;5024006;28;21040;-80
2023/02/08 05:16:41;;;;;;;11.20;7.53;;;;;;;-3.12;67.91;150577.78;5016365;28;20481;-80
2023/02/08 05:19:07;;;;;;;9.70;6.47;;;;;;;-3.16;67.49;150567.56;4993748;28;21028;-80
2023/02/08 05:21:34;;;;;;;9.67;6.67;;;;;;;-3.15;67.41;150570.13;5001421;28;20442;-80
2023/02/08 05:24:01;;;;;;;11.60;7.80;;;;;;;-3.19;67.49;150559.88;5003218;28;20477;-80
2023/02/08 05:26:27;;;;;;;11.40;7.63;;;;;;;-3.20;67.85;150557.31;4988143;28;20882;-80
2023/02/08 05:28:54;;;;;;;9.43;6.30;;;;;;;-3.16;67.29;150567.56;4990618;28;20485;-80
2023/02/08 05:31:24;;;;;;;9.33;7.13;;;;;;;-3.21;67.18;150556.06;4991427;28;20536;-80
2023/02/08 05:33:51;;;;;;;11.00;7.10;;;;;;;-3.28;67.68;150538.13;5012200;28;20794;-80
2023/02/08 05:36:19;;;;;;;9.40;6.80;;;;;;;-3.26;67.59;150541.97;5011665;28;20456;-80
2023/02/08 05:38:46;;;;;;;11.53;7.80;;;;;;;-3.31;67.58;150529.19;5022442;28;20528;-79
2023/02/08 05:41:12;;;;;;;9.37;7.33;;;;;;;-3.30;67.74;150531.72;5001720;28;20921;-80
2023/02/08 05:43:40;;;;;;;10.97;7.70;;;;;;;-3.35;68.49;150518.94;4998148;28;20533;-80
2023/02/08 05:46:07;;;;;;;8.70;6.63;;;;;;;-3.40;69.22;150506.16;4979182;28;20988;-80
2023/02/08 05:48:35;;;;;;;16.00;6.63;;;;;;;-3.48;70.84;150485.69;5011856;28;20454;-80
2023/02/08 05:51:02;;;;;;;12.33;8.47;;;;;;;-3.38;70.24;150511.25;5004562;28;20462;-80
2023/02/08 05:53:29;;;;;;;11.20;7.73;;;;;;;-3.49;70.93;150483.09;5009334;28;21021;-80
2023/02/08 05:55:56;;;;;;;10.70;7.17;;;;;;;-3.58;72.33;150460.09;5009951;28;20459;-79
2023/02/08 05:58:24;;;;;;;12.10;7.77;;;;;;;-3.65;72.49;150443.47;5012600;28;20451;-79
2023/02/08 06:00:50;;;;;;;11.97;8.37;;;;;;;-3.64;72.20;150444.75;5014482;28;20457;-80
2023/02/08 06:03:17;;;;;;;9.87;7.03;;;;;;;-3.67;72.29;150437.06;5010964;28;20483;-80
2023/02/08 06:05:45;;;;;;;12.57;8.73;;;;;;;-3.64;72.67;150444.75;4997108;28;20473;-80
2023/02/08 06:08:12;;;;;;;12.77;8.20;;;;;;;-3.62;72.48;150451.13;5010038;28;20808;-80
2023/02/08 06:10:39;;;;;;;13.00;8.13;;;;;;;-3.70;73.13;150431.97;4979135;28;20462;-79
2023/02/08 06:13:06;;;;;;;9.60;7.77;;;;;;;-3.64;72.29;150444.75;4993037;28;20465;-79
2023/02/08 06:15:33;;;;;;;11.00;8.03;;;;;;;-3.70;72.95;150431.97;5008219;28;20487;-79
2023/02/08 06:17:59;;;;;;;10.37;8.47;;;;;;;-3.67;73.10;150437.06;4991294;28;20461;-79
2023/02/08 06:20:26;;;;;;;13.40;8.63;;;;;;;-3.75;72.98;150417.91;5010032;28;20463;-79
2023/02/08 06:22:55;;;;;;;12.47;9.33;;;;;;;-3.84;74.26;150396.16;4991395;28;20450;-79
2023/02/08 06:25:21;;;;;;;15.00;8.53;;;;;;;-3.82;74.50;150401.28;4988787;28;20510;-79
2023/02/08 06:27:48;;;;;;;14.00;8.13;;;;;;;-3.88;75.19;150384.66;4992359;28;20793;-79
2023/02/08 06:30:15;;;;;;;12.80;9.37;;;;;;;-3.85;73.98;150393.63;4988926;28;20460;-79
2023/02/08 06:32:41;;;;;;;11.80;8.40;;;;;;;-3.85;73.89;150393.63;4990353;28;20465;-74
2023/02/08 06:35:08;;;;;;;12.47;8.93;;;;;;;-3.87;73.57;150388.50;5001098;28;20826;-75
2023/02/08 06:37:35;;;;;;;11.80;7.53;;;;;;;-3.86;73.73;150391.03;5009180;28;20480;-74
2023/02/08 06:40:03;;;;;;;12.10;8.97;;;;;;;-3.86;73.61;150391.03;4991826;28;20436;-74
2023/02/08 06:42:30;;;;;;;15.40;9.40;;;;;;;-3.88;73.89;150384.66;5007083;28;20809;-74
2023/02/08 06:44:57;;;;;;;14.47;8.47;;;;;;;-3.90;73.33;150380.84;4989650;28;20542;-74
2023/02/08 06:47:25;;;;;;;12.30;8.23;;;;;;;-3.93;72.98;150371.88;4986572;28;20452;-74
2023/02/08 06:49:52;;;;;;;11.70;8.57;;;;;;;-3.88;72.49;150384.66;5000540;28;20485;-74
2023/02/08 06:52:19;;;;;;;13.77;8.20;;;;;;;-3.87;72.71;150387.22;4991314;28;20430;-74
2023/02/08 06:54:46;;;;;;;13.47;7.90;;;;;;;-3.70;70.34;150431.97;4991490;28;21149;-74
2023/02/08 06:57:14;;;;;;;12.63;7.70;;;;;;;-3.60;69.71;150456.25;4989103;28;20430;-74
2023/02/08 06:59:40;;;;;;;14.60;8.60;;;;;;;-3.63;69.49;150447.31;4973056;28;20461;-74
2023/02/08 07:02:11;;;;;;;10.33;6.97;;;;;;;-3.48;66.96;150485.69;4990066;28;20457;-74
2023/02/08 07:04:38;;;;;;;11.07;7.23;;;;;;;-3.38;67.29;150511.25;5005160;28;20454;-75
2023/02/08 07:07:05;;;;;;;10.60;7.20;;;;;;;-3.27;66.38;150539.41;5003600;28;20452;-75
2023/02/08 07:09:32;;;;;;;12.93;7.23;;;;;;;-3.18;66.08;150562.47;5005027;28;20838;-75
2023/02/08 07:12:03;;;;;;;13.83;7.93;;;;;;;-3.02;64.98;150603.41;4972080;28;20514;-75
2023/02/08 07:14:32;;;;;;;10.23;7.73;;;;;;;-2.92;66.32;150629.00;5004342;28;20458;-75
2023/02/08 07:16:58;;;;;;;11.17;7.60;;;;;;;-2.76;64.08;150669.94;4987011;28;20447;-75
2023/02/08 07:19:25;;;;;;;11.90;7.50;;;;;;;-2.65;65.26;150698.06;5004689;28;20579;-74
2023/02/08 07:21:52;;;;;;;11.13;8.03;;;;;;;-2.43;63.00;150753.13;5005511;28;20477;-74
2023/02/08 07:24:19;;;;;;;13.20;8.33;;;;;;;-2.33;61.69;150777.50;5007679;28;20572;-74
2023/02/08 07:26:45;;;;;;;12.17;8.37;;;;;;;-2.20;62.04;150810.78;5008279;28;20864;-75
2023/02/08 07:29:12;;;;;;;13.73;8.67;;;;;;;-2.20;63.92;150810.78;4974091;28;21015;-74
2023/02/08 07:31:40;;;;;;;11.63;8.00;;;;;;;-2.06;61.36;150846.59;4990737;28;20462;-75
2023/02/08 07:34:07;;;;;;;12.50;8.83;;;;;;;-2.13;62.36;150828.69;4974129;28;20466;-75
2023/02/08 07:36:35;;;;;;;13.73;7.90;;;;;;;-1.95;61.81;150874.78;4991416;28;20973;-74
2023/02/08 07:39:02;;;;;;;11.23;8.03;;;;;;;-1.75;61.22;150926.06;4989311;28;20468;-74
2023/02/08 07:41:29;;;;;;;10.83;7.10;;;;;;;-1.64;59.42;150952.97;5007547;28;20462;-75
2023/02/08 07:43:55;;;;;;;13.80;8.30;;;;;;;-1.80;60.29;150913.22;4972832;28;20452;-74
2023/02/08 07:46:22;;;;;;;11.40;7.60;;;;;;;-1.67;59.55;150946.56;5008111;28;20510;-75
2023/02/08 07:48:51;;;;;;;10.30;7.60;;;;;;;-1.60;58.84;150964.50;5007003;28;20454;-74
2023/02/08 07:51:18;;;;;;;12.60;8.10;;;;;;;-1.58;59.53;150968.31;5007348;28;20447;-74
2023/02/08 07:53:44;;;;;;;10.77;7.50;;;;;;;-1.70;60.86;150938.88;4989522;28;20482;-74
2023/02/08 07:56:11;;;;;;;13.43;7.83;;;;;;;-1.65;60.11;150951.69;5006100;28;20482;-75
2023/02/08 07:58:38;;;;;;;10.87;8.07;;;;;;;-1.62;58.94;150959.38;4989830;28;20529;-75
2023/02/08 08:01:05;;;;;;;12.53;8.77;;;;;;;-1.71;58.68;150935.00;4996378;28;20540;-75
2023/02/08 08:03:32;;;;;;;11.07;7.80;;;;;;;-1.63;59.30;150956.78;5009285;28;20521;-75
2023/02/08 08:06:00;;;;;;;11.70;8.30;;;;;;;-1.64;58.36;150954.22;5006119;28;20476;-75
2023/02/08 08:08:26;;;;;;;11.77;7.37;;;;;;;-1.62;59.14;150959.38;4989001;28;20451;-75
2023/02/08 08:10:53;;;;;;;14.23;8.57;;;;;;;-1.62;57.60;150958.09;4981593;28;20568;-75
2023/02/08 08:13:20;;;;;;;9.60;6.73;;;;;;;-1.72;57.52;150932.47;5003712;28;20457;-75
2023/02/08 08:15:47;;;;;;;11.63;7.60;;;;;;;-1.51;59.66;150987.53;4982557;28;20452;-76
2023/02/08 08:18:14;;;;;;;15.40;9.47;;;;;;;-1.53;57.90;150982.41;5003829;28;20521;-75
2023/02/08 08:20:41;;;;;;;11.97;8.53;;;;;;;-1.58;58.94;150969.59;4986616;28;20459;-75
2023/02/08 08:23:09;;;;;;;15.03;8.63;;;;;;;-1.49;59.35;150992.69;5004666;28;20500;-75
2023/02/08 08:25:37;;;;;;;13.33;9.03;;;;;;;-1.49;57.93;150992.69;5004421;28;20589;-75
2023/02/08 08:28:06;;;;;;;13.40;8.87;;;;;;;-1.60;57.96;150963.19;5006294;28;20459;-75
2023/02/08 08:30:33;;;;;;;12.40;9.23;;;;;;;-1.74;58.37;150928.59;4985058;28;20504;-75
2023/02/08 08:33:00;;;;;;;12.30;8.73;;;;;;;-1.60;59.50;150963.19;5007942;28;20450;-75
2023/02/08 08:35:26;;;;;;;12.77;8.60;;;;;;;-1.54;58.75;150979.88;4982715;28;20538;-75
2023/02/08 08:37:53;;;;;;;15.03;9.10;;;;;;;-1.61;58.17;150961.91;5003924;28;20444;-75
2023/02/08 08:40:21;;;;;;;15.00;9.30;;;;;;;-1.59;60.05;150965.78;5003851;28;20807;-75
2023/02/08 08:42:48;;;;;;;13.80;8.57;;;;;;;-1.53;59.64;150982.41;4999099;28;20854;-75
2023/02/08 08:45:14;;;;;;;10.77;8.50;;;;;;;-1.55;58.44;150977.28;5008077;28;20954;-75
2023/02/08 08:47:41;;;;;;;11.43;8.10;;;;;;;-1.48;59.75;150995.22;4987673;28;20454;-75
2023/02/08 08:50:08;;;;;;;13.20;7.90;;;;;;;-1.59;57.97;150967.03;4989063;28;20518;-75
2023/02/08 08:52:35;;;;;;;11.20;8.23;;;;;;;-1.57;58.16;150970.91;4988250;28;20466;-75
2023/02/08 08:55:02;;;;;;;13.77;8.67;;;;;;;-1.50;58.08;150990.09;4988353;28;20554;-75
2023/02/08 08:57:30;;;;;;;13.67;8.30;;;;;;;-1.49;58.84;150991.41;5006196;28;20558;-75
2023/02/08 08:59:57;;;;;;;13.67;7.83;;;;;;;-1.12;58.43;151084.97;5002839;28;20460;-75
2023/02/08 09:02:23;;;;;;;13.80;9.10;;;;;;;-1.34;57.62;151031.13;5006036;28;20471;-75
2023/02/08 09:04:50;;;;;;;11.73;8.10;;;;;;;-1.34;58.04;151031.13;5005506;28;20475;-75
2023/02/08 09:07:17;;;;;;;11.60;8.17;;;;;;;-1.27;57.38;151047.75;5004886;28;20529;-75
2023/02/08 09:09:46;;;;;;;10.57;7.80;;;;;;;-1.28;57.27;151046.50;5002508;28;20497;-75
2023/02/08 09:12:13;;;;;;;11.17;7.87;;;;;;;-1.26;57.51;151051.63;5004844;28;20474;-75
2023/02/08 09:14:43;;;;;;;15.40;9.10;;;;;;;-1.17;58.14;151073.44;5006675;28;20467;-75
2023/02/08 09:17:10;;;;;;;14.47;8.77;;;;;;;-1.18;58.10;151069.56;4984283;28;20463;-75
2023/02/08 09:19:37;;;;;;;14.07;9.50;;;;;;;-1.03;57.51;151108.06;4994690;28;20479;-74
2023/02/08 09:22:06;;;;;;;15.20;9.57;;;;;;;-1.01;57.53;151113.16;4995051;28;20460;-75
2023/02/08 09:24:33;;;;;;;13.30;8.67;;;;;;;-1.06;58.53;151100.34;4993809;28;20460;-74
2023/02/08 09:26:59;;;;;;;13.47;9.20;;;;;;;-1.11;57.70;151087.53;4991611;28;20574;-74
2023/02/08 09:29:28;;;;;;;18.40;8.73;;;;;;;-1.13;58.37;151083.66;4965914;28;20528;-75
2023/02/08 09:31:56;;;;;;;13.43;9.33;;;;;;;-1.02;58.09;151110.59;4996881;28;20452;-75
2023/02/08 09:34:23;;;;;;;15.10;9.10;;;;;;;-1.11;58.26;151087.53;4973786;28;20456;-75
2023/02/08 09:36:50;;;;;;;12.97;9.23;;;;;;;-0.99;58.71;151119.56;4975389;28;20480;-75
2023/02/08 09:39:18;;;;;;;16.60;9.87;;;;;;;-1.02;58.33;151110.59;4992022;28;20458;-75
2023/02/08 09:42:01;;;;;;;13.77;8.83;;;;;;;-0.90;59.66;151141.38;4976290;28;20463;-74
2023/02/08 09:44:32;;;;;;;14.73;9.37;;;;;;;-0.82;58.43;151163.16;4991223;28;20458;-75
2023/02/08 09:47:03;;;;;;;13.63;9.40;;;;;;;-0.67;58.35;151201.66;4965230;28;20873;-74
2023/02/08 09:49:33;;;;;;;11.73;7.57;;;;;;;-0.70;57.96;151192.66;4995654;28;20954;-74
2023/02/08 09:52:02;;;;;;;12.03;9.13;;;;;;;-0.66;58.39;151202.88;4995836;28;20546;-75
2023/02/08 09:54:32;;;;;;;13.27;9.50;;;;;;;-0.63;57.97;151210.59;4979399;28;20491;-75
2023/02/08 09:57:00;;;;;;;17.17;9.90;;;;;;;-0.62;57.29;151214.47;4998229;28;20453;-75
2023/02/08 09:59:29;;;;;;;13.00;9.00;;;;;;;-0.56;57.42;151228.59;4977865;28;20472;-75
2023/02/08 10:02:01;;;;;;;18.27;9.87;;;;;;;-0.59;57.46;151219.59;4984871;28;20896;-75
2023/02/08 10:04:31;;;;;;;15.53;9.57;;;;;;;-0.53;56.58;151236.22;4981261;28;20451;-75
2023/02/08 10:06:58;;;;;;;12.77;8.93;;;;;;;-0.45;56.55;151255.50;4997920;28;20533;-75
2023/02/08 10:09:26;;;;;;;9.97;7.43;;;;;;;-0.34;55.90;151284.97;4982024;28;20476;-75
2023/02/08 10:12:02;;;;;;;13.97;9.57;;;;;;;-0.32;57.16;151290.09;4999162;28;20542;-75
2023/02/08 10:14:39;;;;;;;11.90;9.17;;;;;;;-0.24;56.21;151309.38;4999424;28;20571;-75
2023/02/08 10:17:29;;;;;;;14.30;9.73;;;;;;;-0.18;56.29;151324.75;4998614;28;20447;-75
2023/02/08 10:20:03;;;;;;;14.80;9.80;;;;;;;-0.17;55.89;151328.63;5005694;28;20586;-75
2023/02/08 10:22:39;;;;;;;12.37;9.17;;;;;;;-0.27;55.96;151302.97;5006233;28;20487;-75
2023/02/08 10:25:31;;;;;;;17.13;9.87;;;;;;;-0.20;56.44;151320.91;5006809;28;20803;-75
2023/02/08 10:28:20;;;;;;;12.70;9.00;;;;;;;-0.07;55.82;151352.97;5010023;28;20483;-75
2023/02/08 10:30:53;;;;;;;14.30;9.23;;;;;;;-0.10;56.62;151346.56;5005044;28;20463;-75
2023/02/08 10:33:27;;;;;;;15.50;8.67;;;;;;;-0.09;56.03;151347.88;5009564;28;20540;-80
2023/02/08 10:35:54;;;;;;;13.03;9.67;;;;;;;0.03;56.93;151378.63;4992822;28;20545;-80
2023/02/08 10:38:24;;;;;;;17.87;9.60;;;;;;;-0.04;57.00;151361.97;5011085;28;20820;-80
2023/02/08 10:40:54;;;;;;;12.43;9.70;;;;;;;0.07;58.09;151387.63;5007948;28;20468;-80
2023/02/08 10:43:26;;;;;;;14.60;9.60;;;;;;;0.17;56.88;151413.28;5010370;28;20473;-80
2023/02/08 10:45:58;;;;;;;14.83;10.10;;;;;;;0.07;56.98;151388.94;5010873;28;20491;-80
2023/02/08 10:48:52;;;;;;;14.73;9.60;;;;;;;0.09;57.91;151394.06;5007629;28;20462;-82
2023/02/08 10:51:20;;;;;;;12.47;8.90;;;;;;;0.10;57.88;151395.34;4989576;28;20468;-81
2023/02/08 10:53:47;;;;;;;14.73;10.10;;;;;;;0.22;58.46;151426.13;5004997;28;20814;-80
2023/02/08 10:56:24;;;;;;;17.10;10.53;;;;;;;0.14;57.99;151405.59;5007940;28;20444;-81
2023/02/08 10:58:51;;;;;;;14.30;10.30;;;;;;;0.17;58.67;151413.28;4986776;28;20540;-81
2023/02/08 11:01:18;;;;;;;15.37;10.03;;;;;;;0.30;58.43;151446.66;4984595;28;20541;-81
2023/02/08 11:06:39;;;;;;;15.20;10.13;;;;;;;0.38;58.19;151467.19;5091627;27;20644;-81
2023/02/08 11:09:06;;;;;;;17.80;9.53;;;;;;;0.31;57.31;151449.25;5063510;28;20831;-81
2023/02/08 11:11:38;;;;;;;17.93;11.10;;;;;;;0.38;58.41;151467.19;5057196;28;20460;-81
2023/02/08 11:14:09;;;;;;;15.60;9.93;;;;;;;0.50;57.77;151498.03;5087175;28;20461;-82
2023/02/08 11:16:37;;;;;;;13.93;10.03;;;;;;;0.67;57.33;151541.66;5071998;28;20461;-82
2023/02/08 11:19:06;;;;;;;14.87;9.37;;;;;;;0.67;57.19;151541.66;5056048;28;20443;-83
2023/02/08 11:21:35;;;;;;;12.10;9.63;;;;;;;0.69;57.28;151546.78;5075020;28;20953;-83
2023/02/08 11:24:08;;;;;;;11.07;8.70;;;;;;;0.72;56.48;151554.50;5106969;28;20880;-83
2023/02/08 11:26:37;;;;;;;17.03;11.33;;;;;;;0.89;56.74;151598.19;5065462;28;20463;-83
2023/02/08 11:29:06;;;;;;;15.07;9.57;;;;;;;0.83;56.96;151581.47;5076942;28;20529;-83
2023/02/08 11:31:34;;;;;;;14.40;9.00;;;;;;;0.78;57.12;151569.91;5074617;28;20438;-83
2023/02/08 11:34:03;;;;;;;18.13;9.30;;;;;;;0.93;56.85;151607.13;5103964;28;20443;-81